createdAt,value
2022-12-11T00:01:40.005Z,21.90
2022-12-11T00:04:44.638Z,19.57
2022-12-11T00:07:47.694Z,21.08
2022-12-11T00:10:51.434Z,20.13
2022-12-11T00:13:54.489Z,20.17
2022-12-11T00:16:57.681Z,18.33
2022-12-11T00:20:02.034Z,25.93
2022-12-11T00:23:06.409Z,22.40
2022-12-11T00:26:13.060Z,22.50
2022-12-11T00:29:16.121Z,24.02
2022-12-11T00:32:19.039Z,26.13
2022-12-11T00:35:23.336Z,29.38
2022-12-11T00:38:26.634Z,31.17
2022-12-11T00:41:29.731Z,26.60
2022-12-11T00:44:32.667Z,25.83
2022-12-11T00:47:35.622Z,33.70
2022-12-11T00:50:41.405Z,30.50
2022-12-11T00:53:44.761Z,26.85
2022-12-11T00:56:48.315Z,30.13
2022-12-11T00:59:51.709Z,26.35
2022-12-11T01:02:54.909Z,34.25
2022-12-11T01:05:59.380Z,25.87
2022-12-11T01:09:20.089Z,32.10
2022-12-11T01:12:23.074Z,27.88
2022-12-11T01:15:29.971Z,30.00
2022-12-11T01:18:32.985Z,25.17
2022-12-11T01:21:37.345Z,24.10
2022-12-11T01:24:40.368Z,27.30
2022-12-11T01:27:43.521Z,25.70
2022-12-11T01:30:46.595Z,16.63
2022-12-11T01:33:49.881Z,16.40
2022-12-11T01:36:54.706Z,14.03
2022-12-11T01:39:57.721Z,11.88
2022-12-11T01:43:00.762Z,12.90
2022-12-11T01:46:04.004Z,10.05
2022-12-11T01:49:10.927Z,14.47
2022-12-11T01:52:20.635Z,14.77
2022-12-11T01:55:23.937Z,17.30
2022-12-11T01:58:31.864Z,13.77
2022-12-11T02:01:40.732Z,13.45
2022-12-11T02:04:45.645Z,12.45
2022-12-11T02:07:56.933Z,14.35
2022-12-11T02:11:10.313Z,13.18
2022-12-11T02:14:24.438Z,12.93
2022-12-11T02:17:38.798Z,14.05
2022-12-11T02:24:25.982Z,13.68
2022-12-11T02:27:38.203Z,11.88
2022-12-11T02:30:46.817Z,11.50
2022-12-11T02:33:59.716Z,12.32
2022-12-11T02:37:10.155Z,18.13
2022-12-11T02:40:18.800Z,14.00
2022-12-11T02:43:24.416Z,10.75
2022-12-11T02:46:30.338Z,12.32
2022-12-11T02:49:35.094Z,12.50
2022-12-11T02:52:40.162Z,10.73
2022-12-11T02:55:46.781Z,12.40
2022-12-11T02:58:58.636Z,14.02
2022-12-11T03:02:04.713Z,16.50
2022-12-11T03:05:09.272Z,13.73
2022-12-11T03:08:12.838Z,13.75
2022-12-11T03:11:15.791Z,13.15
2022-12-11T03:14:19.058Z,15.88
2022-12-11T03:17:28.839Z,22.93
2022-12-11T03:20:40.125Z,17.17
2022-12-11T03:23:51.222Z,16.88
2022-12-11T03:27:05.608Z,17.40
2022-12-11T03:30:17.039Z,22.00
2022-12-11T03:33:30.552Z,34.08
2022-12-11T03:36:38.090Z,18.27
2022-12-11T03:39:47.390Z,41.28
2022-12-11T03:42:54.476Z,13.95
2022-12-11T03:46:00.333Z,23.60
2022-12-11T03:49:11.748Z,12.93
2022-12-11T03:52:17.755Z,17.65
2022-12-11T03:55:23.823Z,18.38
2022-12-11T03:58:27.029Z,15.93
2022-12-11T04:01:30.167Z,15.53
2022-12-11T04:04:34.487Z,16.60
2022-12-11T04:07:37.687Z,15.65
2022-12-11T04:10:42.011Z,18.50
2022-12-11T04:13:45.167Z,14.20
2022-12-11T04:16:47.284Z,12.57
2022-12-11T04:20:09.471Z,13.57
2022-12-11T04:23:33.757Z,16.65
2022-12-11T04:26:36.844Z,15.95
2022-12-11T04:29:39.799Z,15.90
2022-12-11T04:32:42.971Z,13.93
2022-12-11T04:35:47.362Z,18.43
2022-12-11T04:38:50.439Z,16.08
2022-12-11T04:41:53.416Z,15.77
2022-12-11T04:44:56.486Z,14.73
2022-12-11T04:47:59.626Z,17.50
2022-12-11T04:51:04.866Z,14.23
2022-12-11T04:54:07.778Z,15.10
2022-12-11T04:57:12.132Z,15.35
2022-12-11T05:00:17.226Z,14.73
2022-12-11T05:03:21.044Z,14.40
2022-12-11T05:06:25.428Z,14.95
2022-12-11T05:09:29.182Z,14.95
2022-12-11T05:12:33.609Z,16.27
2022-12-11T05:15:39.272Z,15.95
2022-12-11T05:18:42.582Z,15.07
2022-12-11T05:21:46.911Z,14.00
2022-12-11T05:24:49.885Z,13.98
2022-12-11T05:27:52.955Z,14.65
2022-12-11T05:31:00.664Z,17.15
2022-12-11T05:34:03.913Z,15.00
2022-12-11T05:37:08.653Z,14.07
2022-12-11T05:40:13.601Z,12.82
2022-12-11T05:43:16.612Z,19.25
2022-12-11T05:46:22.722Z,15.23
2022-12-11T05:49:30.654Z,12.10
2022-12-11T05:52:35.502Z,13.00
2022-12-11T05:55:38.768Z,14.85
2022-12-11T05:58:44.116Z,12.83
2022-12-11T06:01:47.517Z,10.52
2022-12-11T06:04:50.805Z,12.98
2022-12-11T06:07:55.401Z,12.63
2022-12-11T06:10:59.143Z,10.32
2022-12-11T06:14:03.676Z,11.60
2022-12-11T06:17:07.307Z,13.27
2022-12-11T06:20:11.245Z,11.43
2022-12-11T06:23:15.685Z,12.80
2022-12-11T06:26:20.191Z,11.70
2022-12-11T06:29:23.093Z,10.77
2022-12-11T06:32:26.217Z,9.85
2022-12-11T06:35:29.332Z,10.00
2022-12-11T06:38:34.168Z,11.07
2022-12-11T06:41:37.156Z,11.85
2022-12-11T06:44:40.231Z,10.68
2022-12-11T06:47:43.607Z,12.90
2022-12-11T06:50:46.856Z,10.98
2022-12-11T06:53:55.935Z,11.77
2022-12-11T06:56:58.964Z,11.05
2022-12-11T07:00:02.040Z,9.87
2022-12-11T07:03:06.047Z,9.93
2022-12-11T07:09:16.492Z,9.30
2022-12-11T07:12:19.948Z,9.90
2022-12-11T07:15:23.012Z,10.97
2022-12-11T07:18:25.998Z,9.97
2022-12-11T07:21:28.996Z,10.48
2022-12-11T07:24:33.328Z,9.68
2022-12-11T07:27:36.450Z,11.35
2022-12-11T07:30:39.639Z,10.60
2022-12-11T07:33:43.808Z,10.30
2022-12-11T07:36:47.010Z,11.23
2022-12-11T07:39:51.439Z,13.60
2022-12-11T07:42:54.612Z,12.20
2022-12-11T07:46:02.792Z,10.13
2022-12-11T07:49:07.270Z,11.88
2022-12-11T07:52:10.238Z,15.00
2022-12-11T07:55:14.792Z,12.23
2022-12-11T07:58:17.778Z,14.45
2022-12-11T08:01:26.059Z,14.75
2022-12-11T08:04:29.184Z,11.90
2022-12-11T08:07:32.150Z,12.18
2022-12-11T08:10:36.615Z,13.32
2022-12-11T08:13:40.617Z,13.75
2022-12-11T08:19:47.285Z,11.10
2022-12-11T08:22:53.460Z,13.18
2022-12-11T08:26:04.564Z,14.10
2022-12-11T08:29:07.508Z,12.43
2022-12-11T08:32:12.617Z,12.85
2022-12-11T08:35:15.777Z,11.60
2022-12-11T08:38:23.802Z,11.70
2022-12-11T08:41:31.859Z,11.68
2022-12-11T08:44:34.802Z,11.38
2022-12-11T08:47:38.490Z,11.45
2022-12-11T08:50:41.884Z,11.02
2022-12-11T08:53:45.479Z,11.98
2022-12-11T08:56:53.520Z,13.05
2022-12-11T08:59:59.462Z,10.90
2022-12-11T09:03:02.775Z,13.57
2022-12-11T09:06:09.064Z,10.75
2022-12-11T09:09:12.609Z,13.10
2022-12-11T09:12:17.012Z,11.63
2022-12-11T09:15:20.215Z,10.45
2022-12-11T09:18:23.201Z,11.87
2022-12-11T09:21:30.896Z,11.10
2022-12-11T09:24:34.104Z,11.15
2022-12-11T09:27:38.378Z,10.20
2022-12-11T09:30:41.586Z,11.60
2022-12-11T09:33:45.547Z,11.83
2022-12-11T09:39:51.665Z,11.15
2022-12-11T09:43:04.591Z,10.97
2022-12-11T09:46:14.422Z,11.63
2022-12-11T09:49:30.176Z,11.30
2022-12-11T09:52:41.194Z,12.23
2022-12-11T09:55:56.623Z,12.25
2022-12-11T09:59:14.188Z,12.27
2022-12-11T10:02:33.582Z,10.18
2022-12-11T10:05:48.086Z,13.32
2022-12-11T10:09:04.408Z,10.73
2022-12-11T10:12:25.089Z,10.00
2022-12-11T10:15:40.561Z,11.35
2022-12-11T10:18:43.774Z,9.93
2022-12-11T10:21:48.572Z,11.17
2022-12-11T10:25:10.586Z,10.65
2022-12-11T10:28:17.634Z,13.77
2022-12-11T10:31:33.223Z,12.95
2022-12-11T10:34:39.798Z,11.82
2022-12-11T10:37:42.760Z,10.68
2022-12-11T10:40:50.906Z,13.48
2022-12-11T10:43:55.115Z,10.38
2022-12-11T10:47:11.104Z,9.80
2022-12-11T10:50:26.491Z,13.73
2022-12-11T10:53:30.516Z,12.30
2022-12-11T10:59:47.143Z,15.20
2022-12-11T11:02:51.904Z,12.27
2022-12-11T11:06:06.065Z,12.73
2022-12-11T11:09:31.050Z,14.35
2022-12-11T11:12:41.624Z,14.30
2022-12-11T11:15:45.803Z,15.60
2022-12-11T11:18:56.738Z,15.32
2022-12-11T11:22:07.070Z,17.05
2022-12-11T11:25:20.820Z,14.02
2022-12-11T11:28:27.943Z,15.35
2022-12-11T11:31:36.721Z,17.15
2022-12-11T11:34:41.111Z,13.02
2022-12-11T11:37:54.316Z,14.75
2022-12-11T11:41:14.678Z,12.80
2022-12-11T11:44:29.923Z,15.10
2022-12-11T11:47:41.134Z,14.55
2022-12-11T11:50:50.577Z,13.85
2022-12-11T11:54:00.077Z,14.40
2022-12-11T11:57:15.748Z,13.70
2022-12-11T12:00:22.666Z,14.65
2022-12-11T12:03:27.107Z,14.18
2022-12-11T12:06:56.663Z,13.98
2022-12-11T12:10:10.936Z,12.48
2022-12-11T12:17:01.699Z,13.35
2022-12-11T12:20:18.466Z,12.45
2022-12-11T12:23:46.053Z,13.63
2022-12-11T12:26:57.922Z,11.55
2022-12-11T12:30:11.566Z,13.70
2022-12-11T12:33:34.143Z,11.68
2022-12-11T12:36:52.196Z,12.55
2022-12-11T12:40:15.657Z,11.27
2022-12-11T12:44:00.401Z,13.18
2022-12-11T12:47:12.342Z,12.10
2022-12-11T12:50:20.913Z,10.18
2022-12-11T12:53:28.782Z,13.45
2022-12-11T12:56:34.905Z,12.23
2022-12-11T12:59:37.967Z,11.60
2022-12-11T13:02:51.318Z,10.80
2022-12-11T13:06:01.773Z,9.60
2022-12-11T13:09:18.084Z,8.77
2022-12-11T13:12:42.516Z,10.38
2022-12-11T13:15:45.540Z,10.25
2022-12-11T13:18:49.720Z,9.63
2022-12-11T13:22:00.599Z,12.07
2022-12-11T13:25:24.950Z,9.07
2022-12-11T13:28:50.919Z,10.35
2022-12-11T13:32:00.820Z,9.68
2022-12-11T13:35:08.557Z,10.55
2022-12-11T13:38:22.036Z,10.00
2022-12-11T13:41:25.884Z,9.57
2022-12-11T13:44:34.282Z,10.27
2022-12-11T13:47:38.450Z,9.88
2022-12-11T13:50:46.123Z,11.70
2022-12-11T13:53:50.248Z,13.18
2022-12-11T13:57:00.675Z,10.85
2022-12-11T14:00:06.119Z,9.68
2022-12-11T14:03:09.542Z,11.57
2022-12-11T14:06:18.607Z,9.27
2022-12-11T14:09:27.417Z,11.80
2022-12-11T14:12:32.666Z,9.48
2022-12-11T14:15:39.497Z,12.63
2022-12-11T14:18:42.787Z,11.85
2022-12-11T14:21:58.278Z,10.55
2022-12-11T14:25:17.452Z,9.98
2022-12-11T14:28:20.602Z,11.80
2022-12-11T14:31:32.533Z,12.40
2022-12-11T14:34:43.518Z,14.60
2022-12-11T14:37:46.813Z,12.35
2022-12-11T14:40:56.780Z,13.82
2022-12-11T14:44:05.384Z,12.93
2022-12-11T14:47:16.421Z,14.20
2022-12-11T14:50:26.943Z,18.20
2022-12-11T14:53:36.721Z,16.15
2022-12-11T14:56:40.074Z,15.95
2022-12-11T14:59:49.112Z,17.20
2022-12-11T15:03:02.192Z,15.68
2022-12-11T15:06:25.675Z,18.52
2022-12-11T15:09:37.100Z,15.75
2022-12-11T15:12:46.123Z,17.10
2022-12-11T15:15:49.331Z,17.80
2022-12-11T15:18:56.842Z,19.38
2022-12-11T15:22:06.680Z,21.92
2022-12-11T15:25:22.071Z,18.70
2022-12-11T15:28:30.822Z,18.52
2022-12-11T15:31:35.983Z,18.30
2022-12-11T15:34:48.582Z,18.98
2022-12-11T15:37:54.887Z,21.13
2022-12-11T15:40:58.960Z,19.10
2022-12-11T15:44:04.610Z,20.15
2022-12-11T15:47:14.393Z,16.92
2022-12-11T15:50:22.938Z,18.23
2022-12-11T15:53:26.084Z,18.58
2022-12-11T15:56:29.105Z,17.73
2022-12-11T15:59:32.895Z,18.75
2022-12-11T16:02:36.025Z,15.90
2022-12-11T16:05:40.974Z,17.27
2022-12-11T16:08:44.018Z,16.15
2022-12-11T16:11:47.150Z,16.60
2022-12-11T16:14:50.212Z,17.73
2022-12-11T16:18:02.970Z,14.30
2022-12-11T16:21:07.937Z,16.13
2022-12-11T16:24:10.985Z,14.77
2022-12-11T16:27:17.322Z,16.50
2022-12-11T16:30:23.417Z,13.43
2022-12-11T16:33:26.443Z,15.73
2022-12-11T16:36:31.010Z,19.30
2022-12-11T16:39:34.692Z,16.08
2022-12-11T16:42:39.038Z,15.02
2022-12-11T16:45:43.961Z,16.63
2022-12-11T16:48:47.309Z,17.27
2022-12-11T16:51:51.831Z,15.88
2022-12-11T16:54:55.002Z,15.13
2022-12-11T16:57:57.939Z,18.10
2022-12-11T17:01:02.963Z,17.33
2022-12-11T17:04:06.505Z,17.38
2022-12-11T17:07:11.512Z,18.20
2022-12-11T17:10:14.686Z,18.98
2022-12-11T17:13:17.744Z,16.83
2022-12-11T17:16:22.087Z,17.30
2022-12-11T17:19:25.572Z,17.80
2022-12-11T17:22:31.256Z,15.02
2022-12-11T17:25:34.231Z,14.50
2022-12-11T17:28:39.831Z,17.10
2022-12-11T17:31:43.015Z,17.10
2022-12-11T17:34:48.125Z,14.07
2022-12-11T17:37:52.749Z,21.00
2022-12-11T17:40:59.660Z,18.08
2022-12-11T17:44:03.333Z,17.73
2022-12-11T17:47:11.067Z,17.42
2022-12-11T17:50:15.698Z,16.05
2022-12-11T17:53:22.813Z,17.45
2022-12-11T17:56:27.467Z,15.63
2022-12-11T17:59:31.783Z,17.65
2022-12-11T18:02:35.927Z,16.67
2022-12-11T18:05:44.380Z,17.65
2022-12-11T18:08:48.730Z,16.42
2022-12-11T18:11:51.877Z,17.35
2022-12-11T18:14:54.912Z,18.65
2022-12-11T18:17:58.821Z,17.17
2022-12-11T18:24:08.638Z,13.85
2022-12-11T18:27:14.322Z,13.52
2022-12-11T18:30:17.517Z,12.23
2022-12-11T18:33:20.579Z,14.75
2022-12-11T18:36:24.041Z,16.67
2022-12-11T18:39:28.347Z,12.73
2022-12-11T18:42:33.562Z,12.90
2022-12-11T18:45:40.548Z,13.55
2022-12-11T18:48:45.396Z,15.90
2022-12-11T18:51:48.716Z,11.73
2022-12-11T18:54:53.534Z,13.68
2022-12-11T18:57:57.155Z,11.75
2022-12-11T19:01:08.613Z,13.27
2022-12-11T19:04:12.846Z,14.13
2022-12-11T19:07:17.770Z,11.10
2022-12-11T19:10:22.152Z,11.57
2022-12-11T19:13:25.379Z,10.32
2022-12-11T19:16:33.589Z,12.27
2022-12-11T19:19:37.476Z,14.05
2022-12-11T19:25:47.793Z,12.95
2022-12-11T19:28:52.662Z,13.43
2022-12-11T19:31:57.519Z,12.95
2022-12-11T19:35:01.221Z,12.45
2022-12-11T19:38:08.874Z,13.18
2022-12-11T19:41:19.098Z,11.27
2022-12-11T19:44:24.320Z,9.48
2022-12-11T19:47:30.112Z,10.13
2022-12-11T19:50:35.550Z,9.45
2022-12-11T19:53:38.998Z,12.27
2022-12-11T19:56:44.217Z,7.55
2022-12-11T19:59:50.267Z,8.70
2022-12-11T20:02:55.629Z,9.57
2022-12-11T20:06:01.979Z,9.00
2022-12-11T20:09:07.313Z,9.60
2022-12-11T20:12:11.721Z,8.15
2022-12-11T20:15:16.576Z,8.45
2022-12-11T20:18:19.605Z,8.30
2022-12-11T20:21:23.574Z,8.50
2022-12-11T20:24:26.514Z,7.05
2022-12-11T20:27:30.885Z,9.73
2022-12-11T20:30:34.792Z,9.00
2022-12-11T20:33:38.116Z,11.40
2022-12-11T20:36:41.184Z,10.48
2022-12-11T20:39:44.238Z,8.20
2022-12-11T20:42:48.581Z,9.93
2022-12-11T20:45:52.357Z,9.20
2022-12-11T20:52:01.486Z,8.38
2022-12-11T20:55:05.028Z,8.20
2022-12-11T20:58:09.958Z,7.60
2022-12-11T21:01:16.036Z,8.48
2022-12-11T21:04:19.326Z,9.38
2022-12-11T21:07:22.306Z,7.65
2022-12-11T21:10:25.567Z,9.67
2022-12-11T21:13:30.366Z,8.23
2022-12-11T21:16:36.717Z,8.13
2022-12-11T21:19:39.789Z,7.55
2022-12-11T21:22:42.743Z,8.37
2022-12-11T21:25:45.682Z,10.20
2022-12-11T21:28:50.470Z,7.87
2022-12-11T21:31:54.275Z,8.13
2022-12-11T21:38:02.696Z,7.18
2022-12-11T21:41:13.504Z,7.88
2022-12-11T21:47:41.114Z,8.30
2022-12-11T21:50:44.203Z,6.17
2022-12-11T21:53:47.688Z,6.53
2022-12-11T21:56:50.648Z,7.82
2022-12-11T21:59:55.111Z,9.20
2022-12-11T22:02:58.179Z,7.30
2022-12-11T22:06:01.243Z,7.80
2022-12-11T22:09:05.870Z,8.75
2022-12-11T22:12:09.417Z,5.35
2022-12-11T22:15:14.208Z,7.35
2022-12-11T22:18:17.362Z,6.35
2022-12-11T22:21:20.897Z,8.93
2022-12-11T22:24:23.955Z,7.78
2022-12-11T22:27:26.867Z,8.73
2022-12-11T22:30:31.328Z,8.20
2022-12-11T22:33:34.311Z,8.45
2022-12-11T22:36:38.614Z,8.67
2022-12-11T22:39:41.700Z,7.65
2022-12-11T22:42:45.126Z,6.72
2022-12-11T22:45:49.631Z,6.57
2022-12-11T22:48:54.403Z,6.97
2022-12-11T22:51:58.489Z,6.38
2022-12-11T22:55:02.240Z,8.35
2022-12-11T22:58:05.426Z,9.65
2022-12-11T23:01:13.637Z,8.40
2022-12-11T23:04:16.672Z,7.30
2022-12-11T23:07:20.816Z,9.10
2022-12-11T23:10:24.366Z,8.68
2022-12-11T23:13:27.468Z,8.55
2022-12-11T23:16:31.913Z,10.10
2022-12-11T23:19:35.001Z,11.02
2022-12-11T23:22:38.455Z,9.80
2022-12-11T23:25:42.267Z,9.60
2022-12-11T23:31:50.440Z,7.60
2022-12-11T23:34:53.396Z,7.85
2022-12-11T23:37:56.462Z,10.00
2022-12-11T23:41:02.001Z,10.47
2022-12-11T23:44:05.634Z,8.48
2022-12-11T23:47:10.071Z,9.00
2022-12-11T23:50:13.099Z,8.50
2022-12-11T23:53:16.315Z,6.90
2022-12-11T23:56:24.510Z,10.60
2022-12-11T23:59:27.538Z,8.07
